createdAt,value
2023-05-25T00:01:43.965Z,100291.13
2023-05-25T00:04:11.638Z,100280.69
2023-05-25T00:06:41.153Z,100288.34
2023-05-25T00:09:08.422Z,100283.13
2023-05-25T00:11:35.490Z,100293.16
2023-05-25T00:14:02.367Z,100291.56
2023-05-25T00:16:29.187Z,100294.38
2023-05-25T00:18:57.635Z,100294.84
2023-05-25T00:21:25.770Z,100294.03
2023-05-25T00:23:52.741Z,100297.66
2023-05-25T00:26:19.514Z,100297.25
2023-05-25T00:28:46.384Z,100300.88
2023-05-25T00:31:13.315Z,100306.09
2023-05-25T00:33:40.454Z,100308.31
2023-05-25T00:36:08.854Z,100305.94
2023-05-25T00:38:36.640Z,100300.94
2023-05-25T00:41:06.164Z,100301.91
2023-05-25T00:43:33.240Z,100302.13
2023-05-25T00:46:00.614Z,100305.75
2023-05-25T00:48:27.573Z,100308.34
2023-05-25T00:50:58.128Z,100306.59
2023-05-25T00:53:27.049Z,100313.22
2023-05-25T00:56:23.945Z,100311.88
2023-05-25T00:58:57.135Z,100309.66
2023-05-25T01:01:25.737Z,100308.41
2023-05-25T01:03:54.153Z,100304.69
2023-05-25T01:06:23.587Z,100309.34
2023-05-25T01:08:54.125Z,100300.91
2023-05-25T01:11:27.082Z,100310.53
2023-05-25T01:13:54.750Z,100310.16
2023-05-25T01:16:22.530Z,100317.19
2023-05-25T01:18:52.832Z,100306.34
2023-05-25T01:21:31.736Z,100306.38
2023-05-25T01:24:12.869Z,100295.19
2023-05-25T01:26:48.777Z,100305.63
2023-05-25T01:29:19.107Z,100301.81
2023-05-25T01:31:47.434Z,100306.03
2023-05-25T01:34:15.260Z,100296.00
2023-05-25T01:36:42.481Z,100304.28
2023-05-25T01:39:11.256Z,100304.06
2023-05-25T01:41:38.579Z,100306.88
2023-05-25T01:44:07.842Z,100307.09
2023-05-25T01:46:39.687Z,100308.31
2023-05-25T01:49:22.977Z,100309.34
2023-05-25T01:52:26.554Z,100308.53
2023-05-25T01:55:22.480Z,100317.78
2023-05-25T01:57:52.905Z,100309.34
2023-05-25T02:00:21.427Z,100316.50
2023-05-25T02:02:50.501Z,100319.91
2023-05-25T02:05:20.219Z,100321.94
2023-05-25T02:07:47.145Z,100315.34
2023-05-25T02:10:14.040Z,100313.75
2023-05-25T02:12:41.162Z,100319.13
2023-05-25T02:15:08.679Z,100325.13
2023-05-25T02:17:37.395Z,100318.94
2023-05-25T02:20:25.230Z,100324.31
2023-05-25T02:22:52.346Z,100323.16
2023-05-25T02:25:19.197Z,100321.34
2023-05-25T02:27:46.602Z,100327.34
2023-05-25T02:30:13.793Z,100322.91
2023-05-25T02:33:05.672Z,100319.31
2023-05-25T02:35:33.441Z,100327.13
2023-05-25T02:38:01.908Z,100328.72
2023-05-25T02:40:30.230Z,100333.78
2023-05-25T02:42:57.095Z,100327.72
2023-05-25T02:45:24.283Z,100327.72
2023-05-25T02:47:51.305Z,100330.53
2023-05-25T02:50:19.620Z,100333.78
2023-05-25T02:52:49.290Z,100334.75
2023-05-25T02:55:18.780Z,100336.19
2023-05-25T02:57:47.636Z,100337.34
2023-05-25T03:00:28.835Z,100331.34
2023-05-25T03:02:55.946Z,100342.75
2023-05-25T03:05:23.052Z,100335.75
2023-05-25T03:07:49.931Z,100346.97
2023-05-25T03:10:16.805Z,100347.75
2023-05-25T03:12:44.364Z,100345.78
2023-05-25T03:15:16.012Z,100349.78
2023-05-25T03:17:43.508Z,100350.56
2023-05-25T03:20:11.833Z,100347.16
2023-05-25T03:22:43.238Z,100355.38
2023-05-25T03:25:13.307Z,100345.75
2023-05-25T03:27:40.640Z,100351.53
2023-05-25T03:30:09.259Z,100350.28
2023-05-25T03:32:36.491Z,100351.63
2023-05-25T03:35:05.638Z,100350.59
2023-05-25T03:37:33.091Z,100353.19
2023-05-25T03:39:59.927Z,100352.13
2023-05-25T03:42:26.922Z,100350.06
2023-05-25T03:44:54.071Z,100352.44
2023-05-25T03:47:20.987Z,100353.44
2023-05-25T03:49:48.103Z,100357.56
2023-05-25T03:52:15.011Z,100364.56
2023-05-25T03:54:42.171Z,100364.13
2023-05-25T03:57:12.052Z,100350.06
2023-05-25T03:59:38.905Z,100363.13
2023-05-25T04:02:05.977Z,100368.72
2023-05-25T04:04:32.914Z,100362.88
2023-05-25T04:06:59.727Z,100363.22
2023-05-25T04:09:26.551Z,100370.84
2023-05-25T04:11:53.326Z,100374.66
2023-05-25T04:14:21.654Z,100372.19
2023-05-25T04:16:49.140Z,100369.19
2023-05-25T04:19:16.603Z,100369.75
2023-05-25T04:21:43.588Z,100376.34
2023-05-25T04:24:11.438Z,100379.63
2023-05-25T04:26:39.562Z,100371.16
2023-05-25T04:29:07.158Z,100374.75
2023-05-25T04:31:49.752Z,100387.16
2023-05-25T04:34:33.927Z,100382.47
2023-05-25T04:37:09.149Z,100379.81
2023-05-25T04:39:37.020Z,100392.16
2023-05-25T04:42:04.933Z,100384.84
2023-05-25T04:44:34.047Z,100393.19
2023-05-25T04:47:02.666Z,100396.09
2023-05-25T04:49:32.234Z,100404.22
2023-05-25T04:51:59.178Z,100399.53
2023-05-25T04:54:28.996Z,100400.03
2023-05-25T04:56:58.572Z,100403.50
2023-05-25T04:59:25.791Z,100401.72
2023-05-25T05:01:52.831Z,100398.38
2023-05-25T05:04:19.906Z,100397.44
2023-05-25T05:06:49.705Z,100395.25
2023-05-25T05:09:21.650Z,100404.06
2023-05-25T05:11:49.282Z,100406.28
2023-05-25T05:14:17.138Z,100409.94
2023-05-25T05:16:45.716Z,100408.22
2023-05-25T05:19:13.975Z,100402.69
2023-05-25T05:21:41.257Z,100404.03
2023-05-25T05:24:08.966Z,100416.34
2023-05-25T05:26:48.159Z,100420.84
2023-05-25T05:29:26.942Z,100416.84
2023-05-25T05:31:56.046Z,100420.81
2023-05-25T05:34:23.018Z,100411.94
2023-05-25T05:36:58.124Z,100414.66
2023-05-25T05:39:27.133Z,100412.00
2023-05-25T05:41:54.749Z,100416.16
2023-05-25T05:44:24.082Z,100430.13
2023-05-25T05:47:01.344Z,100430.19
2023-05-25T05:49:30.991Z,100431.72
2023-05-25T05:51:59.472Z,100438.31
2023-05-25T05:54:30.347Z,100431.75
2023-05-25T05:57:01.826Z,100442.34
2023-05-25T05:59:29.941Z,100442.41
2023-05-25T06:01:57.148Z,100438.25
2023-05-25T06:04:28.648Z,100442.66
2023-05-25T06:06:56.131Z,100437.53
2023-05-25T06:09:22.938Z,100442.00
2023-05-25T06:11:49.903Z,100448.22
2023-05-25T06:14:17.811Z,100454.34
2023-05-25T06:16:45.017Z,100449.66
2023-05-25T06:19:12.406Z,100446.78
2023-05-25T06:21:39.271Z,100442.78
2023-05-25T06:24:06.922Z,100445.22
2023-05-25T06:26:34.317Z,100443.41
2023-05-25T06:29:01.931Z,100454.53
2023-05-25T06:31:28.876Z,100455.00
2023-05-25T06:33:56.218Z,100459.25
2023-05-25T06:36:23.960Z,100453.47
2023-05-25T06:38:51.460Z,100461.19
2023-05-25T06:41:19.994Z,100467.59
2023-05-25T06:43:47.375Z,100464.22
2023-05-25T06:46:22.339Z,100465.47
2023-05-25T06:48:49.272Z,100473.94
2023-05-25T06:51:16.283Z,100483.28
2023-05-25T06:53:43.849Z,100475.78
2023-05-25T06:56:11.681Z,100478.84
2023-05-25T06:58:38.582Z,100482.00
2023-05-25T07:01:06.216Z,100476.84
2023-05-25T07:03:33.258Z,100487.38
2023-05-25T07:06:00.236Z,100477.91
2023-05-25T07:08:27.088Z,100471.41
2023-05-25T07:10:54.042Z,100481.94
2023-05-25T07:13:21.307Z,100488.53
2023-05-25T07:15:48.645Z,100478.38
2023-05-25T07:18:16.320Z,100475.06
2023-05-25T07:20:44.011Z,100487.00
2023-05-25T07:23:11.737Z,100475.22
2023-05-25T07:25:39.216Z,100478.69
2023-05-25T07:28:06.870Z,100482.00
2023-05-25T07:30:34.091Z,100485.38
2023-05-25T07:33:02.246Z,100489.50
2023-05-25T07:35:29.444Z,100489.75
2023-05-25T07:38:05.524Z,100484.53
2023-05-25T07:40:32.735Z,100495.56
2023-05-25T07:42:59.671Z,100488.41
2023-05-25T07:45:26.672Z,100496.19
2023-05-25T07:47:53.774Z,100492.03
2023-05-25T07:50:20.678Z,100486.34
2023-05-25T07:52:47.738Z,100490.13
2023-05-25T07:55:14.877Z,100490.44
2023-05-25T07:57:41.981Z,100494.88
2023-05-25T08:00:09.797Z,100489.97
2023-05-25T08:02:43.632Z,100481.50
2023-05-25T08:05:10.780Z,100477.13
2023-05-25T08:07:39.582Z,100490.69
2023-05-25T08:10:08.709Z,100482.03
2023-05-25T08:12:47.895Z,100490.97
2023-05-25T08:15:17.508Z,100490.75
2023-05-25T08:17:44.891Z,100493.06
2023-05-25T08:20:12.632Z,100492.09
2023-05-25T08:22:40.705Z,100487.00
2023-05-25T08:25:08.240Z,100490.31
2023-05-25T08:27:36.225Z,100491.34
2023-05-25T08:30:06.186Z,100492.94
2023-05-25T08:32:33.480Z,100489.53
2023-05-25T08:35:05.704Z,100482.31
2023-05-25T08:37:33.506Z,100492.44
2023-05-25T08:40:02.758Z,100486.56
2023-05-25T08:42:33.315Z,100488.38
2023-05-25T08:45:02.404Z,100492.19
2023-05-25T08:47:34.360Z,100488.47
2023-05-25T08:50:02.058Z,100498.63
2023-05-25T08:52:34.408Z,100505.69
2023-05-25T08:55:05.843Z,100503.63
2023-05-25T08:57:58.615Z,100509.66
2023-05-25T09:00:32.858Z,100501.47
2023-05-25T09:03:09.735Z,100500.56
2023-05-25T09:05:38.110Z,100499.97
2023-05-25T09:08:06.928Z,100504.13
2023-05-25T09:10:35.346Z,100500.25
2023-05-25T09:13:16.733Z,100504.09
2023-05-25T09:15:48.356Z,100494.84
2023-05-25T09:18:15.303Z,100505.19
2023-05-25T09:20:44.344Z,100504.88
2023-05-25T09:23:14.567Z,100506.06
2023-05-25T09:28:27.586Z,100501.06
2023-05-25T09:30:59.296Z,100501.69
2023-05-25T09:33:47.100Z,100498.84
2023-05-25T09:36:16.906Z,100494.81
2023-05-25T09:38:44.333Z,100503.50
2023-05-25T09:41:12.641Z,100501.59
2023-05-25T09:43:46.731Z,100503.06
2023-05-25T09:46:21.716Z,100504.72
2023-05-25T09:48:50.355Z,100500.06
2023-05-25T09:51:17.535Z,100512.28
2023-05-25T09:53:44.417Z,100506.19
2023-05-25T09:56:13.819Z,100504.91
2023-05-25T09:58:41.238Z,100505.69
2023-05-25T10:01:08.766Z,100502.84
2023-05-25T10:03:36.268Z,100504.47
2023-05-25T10:06:04.640Z,100493.84
2023-05-25T10:08:31.896Z,100494.66
2023-05-25T10:10:59.007Z,100503.00
2023-05-25T10:13:29.319Z,100497.72
2023-05-25T10:15:57.543Z,100500.47
2023-05-25T10:18:32.453Z,100490.53
2023-05-25T10:21:04.958Z,100491.66
2023-05-25T10:23:45.457Z,100485.56
2023-05-25T10:26:18.691Z,100490.22
2023-05-25T10:28:47.892Z,100485.56
2023-05-25T10:31:16.637Z,100487.44
2023-05-25T10:33:47.546Z,100493.53
2023-05-25T10:36:19.589Z,100488.47
2023-05-25T10:38:47.539Z,100482.41
2023-05-25T10:41:16.129Z,100490.88
2023-05-25T10:43:44.015Z,100484.75
2023-05-25T10:46:12.720Z,100483.47
2023-05-25T10:48:45.160Z,100484.53
2023-05-25T10:51:12.325Z,100477.91
2023-05-25T10:53:39.931Z,100480.84
2023-05-25T10:56:08.745Z,100478.47
2023-05-25T10:58:36.662Z,100470.84
2023-05-25T11:01:11.517Z,100470.28
2023-05-25T11:03:56.745Z,100469.00
2023-05-25T11:06:48.300Z,100470.81
2023-05-25T11:09:38.877Z,100456.03
2023-05-25T11:12:09.576Z,100460.81
2023-05-25T11:14:44.879Z,100457.88
2023-05-25T11:17:29.722Z,100463.44
2023-05-25T11:20:02.386Z,100458.41
2023-05-25T11:22:32.065Z,100458.66
2023-05-25T11:25:00.748Z,100453.91
2023-05-25T11:27:31.849Z,100456.03
2023-05-25T11:30:02.330Z,100452.31
2023-05-25T11:32:32.431Z,100454.44
2023-05-25T11:34:59.617Z,100445.47
2023-05-25T11:37:31.579Z,100446.25
2023-05-25T11:40:06.624Z,100442.31
2023-05-25T11:42:33.819Z,100445.19
2023-05-25T11:45:03.704Z,100440.47
2023-05-25T11:47:33.629Z,100432.25
2023-05-25T11:50:01.528Z,100437.53
2023-05-25T11:52:30.387Z,100435.19
2023-05-25T11:54:57.488Z,100437.53
2023-05-25T11:57:25.794Z,100429.34
2023-05-25T11:59:57.387Z,100430.94
2023-05-25T12:02:25.049Z,100426.72
2023-05-25T12:05:04.454Z,100414.03
2023-05-25T12:07:34.730Z,100418.00
2023-05-25T12:10:12.773Z,100414.56
2023-05-25T12:12:39.909Z,100416.94
2023-05-25T12:15:16.694Z,100434.91
2023-05-25T12:17:45.969Z,100417.72
2023-05-25T12:20:15.400Z,100421.44
2023-05-25T12:22:44.889Z,100410.59
2023-05-25T12:25:16.034Z,100417.75
2023-05-25T12:27:44.025Z,100405.84
2023-05-25T12:30:13.193Z,100409.03
2023-05-25T12:33:00.944Z,100406.66
2023-05-25T12:35:50.398Z,100404.53
2023-05-25T12:38:22.020Z,100404.78
2023-05-25T12:41:07.373Z,100405.31
2023-05-25T12:43:44.092Z,100402.13
2023-05-25T12:46:23.934Z,100402.13
2023-05-25T12:48:50.992Z,100397.94
2023-05-25T12:51:19.725Z,100393.19
2023-05-25T12:53:53.161Z,100394.75
2023-05-25T12:56:22.604Z,100399.50
2023-05-25T12:58:49.601Z,100390.00
2023-05-25T13:01:16.735Z,100390.00
2023-05-25T13:03:43.545Z,100393.69
2023-05-25T13:06:10.523Z,100388.66
2023-05-25T13:08:37.618Z,100388.38
2023-05-25T13:11:05.212Z,100383.09
2023-05-25T13:13:32.255Z,100387.31
2023-05-25T13:15:59.196Z,100393.16
2023-05-25T13:18:26.628Z,100386.53
2023-05-25T13:20:56.366Z,100376.25
2023-05-25T13:23:24.133Z,100383.66
2023-05-25T13:25:51.104Z,100379.13
2023-05-25T13:28:17.937Z,100378.81
2023-05-25T13:30:44.958Z,100372.78
2023-05-25T13:33:12.160Z,100366.69
2023-05-25T13:35:46.383Z,100367.75
2023-05-25T13:38:15.222Z,100364.59
2023-05-25T13:40:44.450Z,100358.50
2023-05-25T13:43:13.258Z,100361.91
2023-05-25T13:45:40.168Z,100361.84
2023-05-25T13:48:07.465Z,100358.75
2023-05-25T13:50:34.502Z,100363.75
2023-05-25T13:53:01.454Z,100353.72
2023-05-25T13:55:28.351Z,100346.59
2023-05-25T13:57:58.360Z,100355.59
2023-05-25T14:00:25.232Z,100349.47
2023-05-25T14:03:18.516Z,100348.41
2023-05-25T14:05:46.072Z,100358.72
2023-05-25T14:08:16.217Z,100352.13
2023-05-25T14:11:09.126Z,100355.09
2023-05-25T14:13:41.850Z,100347.66
2023-05-25T14:16:09.560Z,100355.03
2023-05-25T14:18:36.512Z,100357.91
2023-05-25T14:21:03.585Z,100346.53
2023-05-25T14:23:30.661Z,100347.63
2023-05-25T14:25:57.574Z,100343.44
2023-05-25T14:28:24.418Z,100347.63
2023-05-25T14:30:51.496Z,100338.91
2023-05-25T14:33:18.411Z,100339.19
2023-05-25T14:35:45.626Z,100342.88
2023-05-25T14:38:14.234Z,100340.72
2023-05-25T14:40:41.041Z,100337.06
2023-05-25T14:43:07.981Z,100341.81
2023-05-25T14:45:34.859Z,100336.81
2023-05-25T14:48:15.061Z,100333.16
2023-05-25T14:50:44.593Z,100332.84
2023-05-25T14:53:12.005Z,100332.03
2023-05-25T14:55:43.955Z,100332.84
2023-05-25T14:58:11.369Z,100338.06
2023-05-25T15:00:41.081Z,100333.94
2023-05-25T15:03:08.383Z,100337.66
2023-05-25T15:05:35.601Z,100342.34
2023-05-25T15:08:03.058Z,100331.28
2023-05-25T15:10:31.237Z,100331.03
2023-05-25T15:12:58.733Z,100324.47
2023-05-25T15:15:25.517Z,100311.28
2023-05-25T15:17:52.418Z,100314.44
2023-05-25T15:20:19.493Z,100320.25
2023-05-25T15:22:47.797Z,100317.63
2023-05-25T15:25:19.043Z,100320.00
2023-05-25T15:27:51.955Z,100320.78
2023-05-25T15:30:19.432Z,100310.97
2023-05-25T15:32:48.664Z,100308.81
2023-05-25T15:35:15.735Z,100306.47
2023-05-25T15:37:43.983Z,100295.16
2023-05-25T15:40:13.539Z,100293.28
2023-05-25T15:42:41.040Z,100291.69
2023-05-25T15:45:08.552Z,100302.78
2023-05-25T15:47:35.451Z,100291.72
2023-05-25T15:50:02.360Z,100291.19
2023-05-25T15:52:31.172Z,100297.78
2023-05-25T15:54:58.596Z,100295.91
2023-05-25T15:57:25.553Z,100281.63
2023-05-25T15:59:52.496Z,100284.28
2023-05-25T16:02:19.417Z,100295.94
2023-05-25T16:04:46.363Z,100298.06
2023-05-25T16:07:14.294Z,100292.03
2023-05-25T16:09:41.175Z,100293.84
2023-05-25T16:12:08.097Z,100291.47
2023-05-25T16:14:35.113Z,100292.53
2023-05-25T16:17:03.072Z,100294.13
2023-05-25T16:19:30.001Z,100299.69
2023-05-25T16:21:57.976Z,100285.44
2023-05-25T16:24:27.099Z,100290.19
2023-05-25T16:26:54.229Z,100280.19
2023-05-25T16:29:23.649Z,100295.47
2023-05-25T16:31:51.661Z,100288.34
2023-05-25T16:34:18.548Z,100293.41
2023-05-25T16:36:45.380Z,100284.91
2023-05-25T16:39:12.213Z,100296.78
2023-05-25T16:41:43.876Z,100278.59
2023-05-25T16:44:11.784Z,100300.22
2023-05-25T16:46:39.234Z,100306.59
2023-05-25T16:49:06.597Z,100305.00
2023-05-25T16:51:33.472Z,100308.16
2023-05-25T16:54:00.335Z,100300.53
2023-05-25T16:56:27.364Z,100310.31
2023-05-25T16:58:55.103Z,100316.63
2023-05-25T17:01:22.287Z,100310.56
2023-05-25T17:03:49.451Z,100308.19
2023-05-25T17:06:16.465Z,100303.72
2023-05-25T17:08:43.394Z,100312.69
2023-05-25T17:11:10.783Z,100319.53
2023-05-25T17:13:38.100Z,100314.28
2023-05-25T17:16:05.090Z,100311.88
2023-05-25T17:18:32.052Z,100309.22
2023-05-25T17:20:58.975Z,100303.69
2023-05-25T17:23:25.949Z,100312.41
2023-05-25T17:25:53.141Z,100313.47
2023-05-25T17:28:20.257Z,100306.59
2023-05-25T17:30:48.596Z,100316.88
2023-05-25T17:33:16.268Z,100317.69
2023-05-25T17:35:43.310Z,100310.53
2023-05-25T17:38:10.892Z,100306.59
2023-05-25T17:40:37.724Z,100318.69
2023-05-25T17:43:04.602Z,100319.22
2023-05-25T17:45:31.430Z,100326.59
2023-05-25T17:47:58.907Z,100322.38
2023-05-25T17:50:25.953Z,100311.28
2023-05-25T17:52:52.774Z,100309.69
2023-05-25T17:55:20.814Z,100322.88
2023-05-25T17:57:48.379Z,100322.09
2023-05-25T18:00:15.921Z,100315.44
2023-05-25T18:02:44.191Z,100315.44
2023-05-25T18:05:11.121Z,100323.09
2023-05-25T18:07:37.983Z,100324.91
2023-05-25T18:10:05.452Z,100324.13
2023-05-25T18:12:33.185Z,100319.59
2023-05-25T18:15:00.177Z,100322.97
2023-05-25T18:17:27.274Z,100314.75
2023-05-25T18:19:55.243Z,100316.88
2023-05-25T18:22:22.148Z,100312.94
2023-05-25T18:24:49.028Z,100315.50
2023-05-25T18:27:15.848Z,100322.06
2023-05-25T18:29:42.891Z,100324.19
2023-05-25T18:32:09.773Z,100317.28
2023-05-25T18:34:36.749Z,100318.91
2023-05-25T18:37:03.613Z,100321.22
2023-05-25T18:39:31.399Z,100317.25
2023-05-25T18:41:58.265Z,100316.69
2023-05-25T18:44:25.274Z,100317.78
2023-05-25T18:46:53.580Z,100316.44
2023-05-25T18:49:20.482Z,100321.44
2023-05-25T18:51:47.838Z,100313.22
2023-05-25T18:54:17.252Z,100322.19
2023-05-25T18:56:44.120Z,100325.56
2023-05-25T18:59:12.510Z,100328.72
2023-05-25T19:01:39.414Z,100328.50
2023-05-25T19:04:06.653Z,100329.78
2023-05-25T19:06:33.682Z,100334.25
2023-05-25T19:09:00.767Z,100333.94
2023-05-25T19:11:27.837Z,100336.53
2023-05-25T19:13:54.687Z,100333.91
2023-05-25T19:16:22.099Z,100342.78
2023-05-25T19:18:50.093Z,100337.47
2023-05-25T19:21:17.060Z,100347.53
2023-05-25T19:23:44.953Z,100345.94
2023-05-25T19:26:11.917Z,100349.53
2023-05-25T19:28:39.256Z,100344.44
2023-05-25T19:31:07.125Z,100356.59
2023-05-25T19:33:34.122Z,100338.16
2023-05-25T19:36:01.193Z,100344.44
2023-05-25T19:38:31.501Z,100333.63
2023-05-25T19:41:07.670Z,100338.34
2023-05-25T19:43:34.686Z,100347.78
2023-05-25T19:46:03.413Z,100351.94
2023-05-25T19:48:30.417Z,100345.09
2023-05-25T19:50:57.738Z,100343.59
2023-05-25T19:53:24.741Z,100345.72
2023-05-25T19:55:51.645Z,100349.94
2023-05-25T19:58:18.587Z,100353.59
2023-05-25T20:00:45.483Z,100352.97
2023-05-25T20:03:12.830Z,100359.59
2023-05-25T20:05:40.294Z,100353.53
2023-05-25T20:08:07.196Z,100357.31
2023-05-25T20:10:38.954Z,100357.47
2023-05-25T20:13:07.515Z,100364.28
2023-05-25T20:15:34.938Z,100360.19
2023-05-25T20:18:02.956Z,100361.66
2023-05-25T20:20:29.918Z,100354.06
2023-05-25T20:22:56.911Z,100359.56
2023-05-25T20:25:23.888Z,100362.38
2023-05-25T20:27:50.727Z,100365.78
2023-05-25T20:30:17.886Z,100352.06
2023-05-25T20:32:45.185Z,100366.66
2023-05-25T20:35:13.469Z,100362.88
2023-05-25T20:37:41.907Z,100366.22
2023-05-25T20:40:09.313Z,100369.13
2023-05-25T20:42:36.359Z,100372.72
2023-05-25T20:45:03.891Z,100373.44
2023-05-25T20:47:35.326Z,100367.41
2023-05-25T20:50:02.248Z,100368.38
2023-05-25T20:52:31.203Z,100372.22
2023-05-25T20:55:00.854Z,100371.44
2023-05-25T20:57:29.183Z,100372.66
2023-05-25T20:59:59.833Z,100377.13
2023-05-25T21:02:28.755Z,100377.84
2023-05-25T21:04:56.133Z,100387.63
2023-05-25T21:07:23.038Z,100389.06
2023-05-25T21:09:49.886Z,100396.66
2023-05-25T21:12:19.007Z,100398.50
2023-05-25T21:14:45.986Z,100395.06
2023-05-25T21:17:14.880Z,100398.41
2023-05-25T21:19:41.906Z,100395.78
2023-05-25T21:22:08.858Z,100395.31
2023-05-25T21:24:35.976Z,100389.28
2023-05-25T21:27:03.521Z,100397.63
2023-05-25T21:29:30.402Z,100400.97
2023-05-25T21:31:59.501Z,100406.72
2023-05-25T21:34:26.580Z,100407.38
2023-05-25T21:36:53.638Z,100405.94
2023-05-25T21:39:20.514Z,100407.38
2023-05-25T21:41:48.397Z,100412.63
2023-05-25T21:44:15.515Z,100417.13
2023-05-25T21:46:42.385Z,100416.38
2023-05-25T21:49:09.309Z,100415.44
2023-05-25T21:51:36.585Z,100410.56
2023-05-25T21:54:05.464Z,100415.72
2023-05-25T21:56:32.372Z,100418.69
2023-05-25T21:58:59.228Z,100409.16
2023-05-25T22:01:26.349Z,100416.13
2023-05-25T22:03:53.248Z,100408.63
2023-05-25T22:06:20.559Z,100416.38
2023-05-25T22:08:47.651Z,100414.47
2023-05-25T22:11:14.729Z,100420.09
2023-05-25T22:13:41.508Z,100423.03
2023-05-25T22:16:08.341Z,100414.50
2023-05-25T22:18:37.828Z,100415.44
2023-05-25T22:21:05.827Z,100406.34
2023-05-25T22:23:32.669Z,100410.88
2023-05-25T22:25:59.518Z,100418.88
2023-05-25T22:28:26.555Z,100406.69
2023-05-25T22:30:53.434Z,100412.13
2023-05-25T22:33:23.540Z,100412.47
2023-05-25T22:35:51.015Z,100403.72
2023-05-25T22:38:17.910Z,100408.16
2023-05-25T22:40:47.696Z,100404.94
2023-05-25T22:43:15.024Z,100409.63
2023-05-25T22:45:43.112Z,100410.16
2023-05-25T22:48:10.977Z,100415.22
2023-05-25T22:50:37.896Z,100407.00
2023-05-25T22:53:04.761Z,100413.47
2023-05-25T22:55:31.825Z,100414.75
2023-05-25T22:57:58.846Z,100414.50
2023-05-25T23:00:25.797Z,100404.69
2023-05-25T23:02:52.827Z,100409.13
2023-05-25T23:05:21.955Z,100402.78
2023-05-25T23:07:49.887Z,100396.41
2023-05-25T23:10:16.896Z,100399.69
2023-05-25T23:12:43.884Z,100394.44
2023-05-25T23:15:11.343Z,100389.66
2023-05-25T23:17:38.407Z,100385.47
2023-05-25T23:20:09.862Z,100386.72
2023-05-25T23:22:36.870Z,100394.19
2023-05-25T23:25:03.829Z,100388.84
2023-05-25T23:27:32.460Z,100377.56
2023-05-25T23:29:59.367Z,100385.72
2023-05-25T23:32:26.272Z,100373.28
2023-05-25T23:34:53.176Z,100378.19
2023-05-25T23:37:20.030Z,100379.66
2023-05-25T23:39:46.884Z,100379.44
2023-05-25T23:42:15.553Z,100382.06
2023-05-25T23:44:42.775Z,100372.81
2023-05-25T23:47:10.530Z,100377.44
2023-05-25T23:49:37.407Z,100376.78
2023-05-25T23:52:06.133Z,100384.84
2023-05-25T23:54:32.996Z,100379.94
2023-05-25T23:56:59.904Z,100380.69
2023-05-25T23:59:26.807Z,100379.78
